createdAt,value
2019-05-22T00:02:41.701Z,14.70
2019-05-22T00:06:05.982Z,14.61
2019-05-22T00:09:43.895Z,14.61
2019-05-22T00:13:09.851Z,14.74
2019-05-22T00:16:33.959Z,14.82
2019-05-22T00:19:57.760Z,14.52
2019-05-22T00:23:22.010Z,14.52
2019-05-22T00:26:45.998Z,14.76
2019-05-22T00:30:13.211Z,14.59
2019-05-22T00:33:36.606Z,14.41
2019-05-22T00:37:00.555Z,14.34
2019-05-22T00:40:26.973Z,14.11
2019-05-22T00:43:50.921Z,14.23
2019-05-22T00:47:14.271Z,14.19
2019-05-22T00:50:44.199Z,14.33
2019-05-22T00:54:13.997Z,14.45
2019-05-22T00:57:46.746Z,14.30
2019-05-22T01:01:19.673Z,14.68
2019-05-22T01:04:43.018Z,14.37
2019-05-22T01:08:06.430Z,14.08
2019-05-22T01:11:31.497Z,14.05
2019-05-22T01:14:57.188Z,14.02
2019-05-22T01:18:22.733Z,14.45
2019-05-22T01:21:46.583Z,14.28
2019-05-22T01:25:13.881Z,14.39
2019-05-22T01:28:38.177Z,14.18
2019-05-22T01:32:12.932Z,14.10
2019-05-22T01:35:36.397Z,14.23
2019-05-22T01:39:36.320Z,14.13
2019-05-22T01:43:02.938Z,14.32
2019-05-22T01:46:27.923Z,14.15
2019-05-22T01:49:53.477Z,14.09
2019-05-22T01:53:20.957Z,13.94
2019-05-22T01:56:45.406Z,14.23
2019-05-22T02:00:11.107Z,14.26
2019-05-22T02:03:36.038Z,13.94
2019-05-22T02:07:00.734Z,13.88
2019-05-22T02:10:31.373Z,14.01
2019-05-22T02:14:09.423Z,14.08
2019-05-22T02:17:34.709Z,14.19
2019-05-22T02:20:58.512Z,14.26
2019-05-22T02:24:22.281Z,14.21
2019-05-22T02:27:45.924Z,14.30
2019-05-22T02:31:11.374Z,14.23
2019-05-22T02:34:35.128Z,14.13
2019-05-22T02:37:58.414Z,14.07
2019-05-22T02:41:24.308Z,13.84
2019-05-22T02:44:48.117Z,13.62
2019-05-22T02:48:13.289Z,13.78
2019-05-22T02:51:37.488Z,13.91
2019-05-22T02:55:01.663Z,13.65
2019-05-22T02:58:26.862Z,13.69
2019-05-22T03:01:50.672Z,13.92
2019-05-22T03:05:14.622Z,14.09
2019-05-22T03:09:15.650Z,14.08
2019-05-22T03:12:40.258Z,14.11
2019-05-22T03:16:03.598Z,13.97
2019-05-22T03:19:42.097Z,13.95
2019-05-22T03:23:36.083Z,14.07
2019-05-22T03:26:59.484Z,14.14
2019-05-22T03:30:26.748Z,14.09
2019-05-22T03:33:50.102Z,14.18
2019-05-22T03:37:14.105Z,13.96
2019-05-22T03:40:37.799Z,14.02
2019-05-22T03:44:03.068Z,13.92
2019-05-22T03:47:27.543Z,13.76
2019-05-22T03:50:55.975Z,13.87
2019-05-22T03:54:19.703Z,14.06
2019-05-22T03:57:44.970Z,13.89
2019-05-22T04:01:08.472Z,13.85
2019-05-22T04:04:36.046Z,13.79
2019-05-22T04:08:03.010Z,13.92
2019-05-22T04:11:34.394Z,14.10
2019-05-22T04:14:58.251Z,14.12
2019-05-22T04:18:24.023Z,14.09
2019-05-22T04:21:47.527Z,14.04
2019-05-22T04:25:12.123Z,13.92
2019-05-22T04:28:45.459Z,14.09
2019-05-22T04:32:16.649Z,14.14
2019-05-22T04:35:41.043Z,14.34
2019-05-22T04:39:11.798Z,14.25
2019-05-22T04:42:35.097Z,14.32
2019-05-22T04:46:02.755Z,14.13
2019-05-22T04:49:26.111Z,14.25
2019-05-22T04:52:57.982Z,13.97
2019-05-22T04:56:22.287Z,14.00
2019-05-22T04:59:45.417Z,13.96
2019-05-22T05:03:10.550Z,13.94
2019-05-22T05:06:36.852Z,13.77
2019-05-22T05:10:00.174Z,14.04
2019-05-22T05:13:24.135Z,14.16
2019-05-22T05:16:48.603Z,14.25
2019-05-22T05:20:22.023Z,14.40
2019-05-22T05:23:38.165Z,14.29
2019-05-22T05:27:02.604Z,14.35
2019-05-22T05:30:26.820Z,14.37
2019-05-22T05:34:32.936Z,14.85
2019-05-22T05:37:56.227Z,14.54
2019-05-22T05:41:19.440Z,14.46
2019-05-22T05:44:42.525Z,14.42
2019-05-22T05:48:08.476Z,14.39
2019-05-22T05:51:42.370Z,14.49
2019-05-22T05:55:06.875Z,14.45
2019-05-22T05:58:31.680Z,14.22
2019-05-22T06:01:59.834Z,14.64
2019-05-22T06:05:23.521Z,14.56
2019-05-22T06:08:48.035Z,14.31
2019-05-22T06:12:12.401Z,14.41
2019-05-22T06:15:58.439Z,14.20
2019-05-22T06:19:23.485Z,14.38
2019-05-22T06:23:49.277Z,14.46
2019-05-22T06:27:43.688Z,14.51
2019-05-22T06:31:12.951Z,14.75
2019-05-22T06:34:37.119Z,14.73
2019-05-22T06:38:45.591Z,14.49
2019-05-22T06:42:13.454Z,14.73
2019-05-22T06:45:37.077Z,14.89
2019-05-22T06:49:05.785Z,15.10
2019-05-22T06:52:29.002Z,14.79
2019-05-22T06:55:52.243Z,14.91
2019-05-22T06:59:15.579Z,14.83
2019-05-22T07:02:38.753Z,15.12
2019-05-22T07:06:03.286Z,15.26
2019-05-22T07:09:28.381Z,15.26
2019-05-22T07:12:51.509Z,15.36
2019-05-22T07:16:18.817Z,15.14
2019-05-22T07:19:43.233Z,15.22
2019-05-22T07:23:08.015Z,15.44
2019-05-22T07:26:32.000Z,15.46
2019-05-22T07:29:55.882Z,15.48
2019-05-22T07:33:20.383Z,15.68
2019-05-22T07:36:44.855Z,15.82
2019-05-22T07:40:10.036Z,15.79
2019-05-22T07:43:33.687Z,16.19
2019-05-22T07:46:57.429Z,16.55
2019-05-22T07:50:23.732Z,16.56
2019-05-22T07:53:46.941Z,16.52
2019-05-22T07:57:10.703Z,16.36
2019-05-22T08:00:34.874Z,16.23
2019-05-22T08:04:01.548Z,16.85
2019-05-22T08:07:27.623Z,16.73
2019-05-22T08:10:53.151Z,16.84
2019-05-22T08:14:18.121Z,17.21
2019-05-22T08:17:41.814Z,17.19
2019-05-22T08:21:05.524Z,17.57
2019-05-22T08:24:28.878Z,17.97
2019-05-22T08:27:52.329Z,17.47
2019-05-22T08:31:20.100Z,17.61
2019-05-22T08:34:44.240Z,18.05
2019-05-22T08:38:09.426Z,17.94
2019-05-22T08:41:38.449Z,18.23
2019-05-22T08:45:03.290Z,18.56
2019-05-22T08:48:27.680Z,17.43
2019-05-22T08:51:50.948Z,17.49
2019-05-22T08:55:15.146Z,17.91
2019-05-22T08:58:41.684Z,18.39
2019-05-22T09:02:42.263Z,18.29
2019-05-22T09:06:10.002Z,18.44
2019-05-22T09:09:33.081Z,19.21
2019-05-22T09:12:56.436Z,19.12
2019-05-22T09:16:20.193Z,19.41
2019-05-22T09:19:44.475Z,18.94
2019-05-22T09:23:09.912Z,18.62
2019-05-22T09:26:33.134Z,18.68
2019-05-22T09:29:56.346Z,18.43
2019-05-22T09:33:19.804Z,18.23
2019-05-22T09:36:43.840Z,18.34
2019-05-22T09:40:07.439Z,18.77
2019-05-22T09:43:30.891Z,19.12
2019-05-22T09:46:54.669Z,19.07
2019-05-22T09:50:18.547Z,19.60
2019-05-22T09:53:42.696Z,20.10
2019-05-22T09:57:07.103Z,20.30
2019-05-22T10:00:31.234Z,20.33
2019-05-22T10:03:54.624Z,19.17
2019-05-22T10:07:18.104Z,19.24
2019-05-22T10:10:41.533Z,19.20
2019-05-22T10:14:05.703Z,20.06
2019-05-22T10:17:29.743Z,21.44
2019-05-22T10:20:53.613Z,21.84
2019-05-22T10:24:17.506Z,22.79
2019-05-22T10:27:41.826Z,23.02
2019-05-22T10:31:05.027Z,23.69
2019-05-22T10:34:28.322Z,24.73
2019-05-22T10:37:52.005Z,24.06
2019-05-22T10:41:15.166Z,24.88
2019-05-22T10:44:38.457Z,24.70
2019-05-22T10:48:02.673Z,24.55
2019-05-22T10:51:26.429Z,24.98
2019-05-22T10:54:49.900Z,25.09
2019-05-22T10:58:13.025Z,26.10
2019-05-22T11:01:38.921Z,25.96
2019-05-22T11:05:02.503Z,24.72
2019-05-22T11:08:30.392Z,26.50
2019-05-22T11:11:51.665Z,24.63
2019-05-22T11:15:15.249Z,25.66
2019-05-22T11:18:38.772Z,27.04
2019-05-22T11:22:02.713Z,27.84
2019-05-22T11:25:26.647Z,27.43
2019-05-22T11:28:50.307Z,25.96
2019-05-22T11:32:14.684Z,25.99
2019-05-22T11:35:38.529Z,26.50
2019-05-22T11:39:01.791Z,26.40
2019-05-22T11:42:26.440Z,27.81
2019-05-22T11:45:49.716Z,26.90
2019-05-22T11:49:13.046Z,26.65
2019-05-22T11:52:36.353Z,28.41
2019-05-22T11:56:00.264Z,28.58
2019-05-22T11:59:23.965Z,29.77
2019-05-22T12:02:48.917Z,28.84
2019-05-22T12:06:12.457Z,29.62
2019-05-22T12:09:35.812Z,30.89
2019-05-22T12:12:59.835Z,30.12
2019-05-22T12:16:24.117Z,27.10
2019-05-22T12:19:47.226Z,28.08
2019-05-22T12:23:10.368Z,28.36
2019-05-22T12:26:33.753Z,31.58
2019-05-22T12:29:57.112Z,31.19
2019-05-22T12:33:20.512Z,30.15
2019-05-22T12:36:43.962Z,28.01
2019-05-22T12:40:10.239Z,30.11
2019-05-22T12:43:34.501Z,30.57
2019-05-22T12:46:58.001Z,30.83
2019-05-22T12:50:23.224Z,30.83
2019-05-22T12:53:46.947Z,30.36
2019-05-22T12:57:11.429Z,29.18
2019-05-22T13:00:35.402Z,29.90
2019-05-22T13:04:00.398Z,31.96
2019-05-22T13:07:24.769Z,32.76
2019-05-22T13:10:50.713Z,31.11
2019-05-22T13:14:14.576Z,31.89
2019-05-22T13:17:38.845Z,28.98
2019-05-22T13:21:02.921Z,27.09
2019-05-22T13:24:27.416Z,26.24
2019-05-22T13:27:52.757Z,28.47
2019-05-22T13:31:16.411Z,31.07
2019-05-22T13:34:40.857Z,29.24
2019-05-22T13:38:04.736Z,30.04
2019-05-22T13:41:29.212Z,31.90
2019-05-22T13:44:52.785Z,30.83
2019-05-22T13:48:15.939Z,31.69
2019-05-22T13:51:39.792Z,32.05
2019-05-22T13:55:04.179Z,31.79
2019-05-22T13:58:28.328Z,31.80
2019-05-22T14:01:52.344Z,30.83
2019-05-22T14:05:19.241Z,29.26
2019-05-22T14:08:42.334Z,26.81
2019-05-22T14:12:06.772Z,26.86
2019-05-22T14:15:47.775Z,26.62
2019-05-22T14:18:55.634Z,26.97
2019-05-22T14:22:18.761Z,30.63
2019-05-22T14:25:42.743Z,32.05
2019-05-22T14:29:06.239Z,31.53
2019-05-22T14:32:30.612Z,30.15
2019-05-22T14:35:55.194Z,29.38
2019-05-22T14:39:19.736Z,29.68
2019-05-22T14:42:43.315Z,29.57
2019-05-22T14:46:06.597Z,28.76
2019-05-22T14:49:30.382Z,27.15
2019-05-22T14:52:53.733Z,28.33
2019-05-22T14:56:17.823Z,28.88
2019-05-22T14:59:41.121Z,28.34
2019-05-22T15:03:05.995Z,27.57
2019-05-22T15:06:29.963Z,27.62
2019-05-22T15:09:53.313Z,26.24
2019-05-22T15:13:16.399Z,28.85
2019-05-22T15:16:39.808Z,30.90
2019-05-22T15:20:03.379Z,31.08
2019-05-22T15:23:27.229Z,32.34
2019-05-22T15:26:51.457Z,34.69
2019-05-22T15:30:15.359Z,34.68
2019-05-22T15:33:39.763Z,36.95
2019-05-22T15:37:04.982Z,35.79
2019-05-22T15:40:29.711Z,35.85
2019-05-22T15:43:53.503Z,35.41
2019-05-22T15:47:17.087Z,34.86
2019-05-22T15:50:44.285Z,32.10
2019-05-22T15:54:09.865Z,31.37
2019-05-22T15:57:34.621Z,30.48
2019-05-22T16:00:58.210Z,30.82
2019-05-22T16:04:22.631Z,31.71
2019-05-22T16:07:48.699Z,32.23
2019-05-22T16:11:14.914Z,32.53
2019-05-22T16:14:39.223Z,31.17
2019-05-22T16:18:11.708Z,30.32
2019-05-22T16:21:30.494Z,27.74
2019-05-22T16:24:53.973Z,26.79
2019-05-22T16:28:18.059Z,25.86
2019-05-22T16:31:43.407Z,25.81
2019-05-22T16:35:07.881Z,25.57
2019-05-22T16:38:31.314Z,25.16
2019-05-22T16:41:54.522Z,26.34
2019-05-22T16:45:18.197Z,26.45
2019-05-22T16:48:42.513Z,26.49
2019-05-22T16:52:08.349Z,25.54
2019-05-22T16:55:32.381Z,26.17
2019-05-22T16:58:56.746Z,27.30
2019-05-22T17:02:20.748Z,26.72
2019-05-22T17:05:44.131Z,27.31
2019-05-22T17:09:10.799Z,26.37
2019-05-22T17:12:35.565Z,26.04
2019-05-22T17:16:00.033Z,25.74
2019-05-22T17:19:27.532Z,25.32
2019-05-22T17:22:48.252Z,24.92
2019-05-22T17:26:12.119Z,24.84
2019-05-22T17:29:35.642Z,24.58
2019-05-22T17:32:59.132Z,24.39
2019-05-22T17:36:23.487Z,24.52
2019-05-22T17:39:48.716Z,24.63
2019-05-22T17:43:13.731Z,24.38
2019-05-22T17:46:38.909Z,24.12
2019-05-22T17:50:03.094Z,24.56
2019-05-22T17:53:27.816Z,24.36
2019-05-22T17:56:51.610Z,24.37
2019-05-22T18:00:24.668Z,23.64
2019-05-22T18:03:49.089Z,23.47
2019-05-22T18:07:12.326Z,23.30
2019-05-22T18:10:40.367Z,22.72
2019-05-22T18:14:05.253Z,23.22
2019-05-22T18:17:28.651Z,22.79
2019-05-22T18:20:52.662Z,22.78
2019-05-22T18:24:16.043Z,22.84
2019-05-22T18:27:41.318Z,22.59
2019-05-22T18:31:05.014Z,22.43
2019-05-22T18:34:28.337Z,22.33
2019-05-22T18:37:52.023Z,22.24
2019-05-22T18:41:15.378Z,21.81
2019-05-22T18:44:38.875Z,21.69
2019-05-22T18:48:02.704Z,21.70
2019-05-22T18:51:26.116Z,21.33
2019-05-22T18:54:50.926Z,21.21
2019-05-22T18:58:14.255Z,20.98
2019-05-22T19:01:37.818Z,21.03
2019-05-22T19:05:01.213Z,20.67
2019-05-22T19:08:24.436Z,20.48
2019-05-22T19:11:48.196Z,20.31
2019-05-22T19:15:12.572Z,20.26
2019-05-22T19:18:36.341Z,20.12
2019-05-22T19:22:00.684Z,19.81
2019-05-22T19:25:27.235Z,19.64
2019-05-22T19:28:50.783Z,19.22
2019-05-22T19:32:15.218Z,19.31
2019-05-22T19:35:39.097Z,19.18
2019-05-22T19:39:02.851Z,18.98
2019-05-22T19:42:26.220Z,18.96
2019-05-22T19:45:49.372Z,18.82
2019-05-22T19:49:12.910Z,18.84
2019-05-22T19:52:41.803Z,18.55
2019-05-22T19:56:06.451Z,18.35
2019-05-22T19:59:30.886Z,18.22
2019-05-22T20:02:55.271Z,18.36
2019-05-22T20:06:19.372Z,18.27
2019-05-22T20:09:44.094Z,17.99
2019-05-22T20:13:08.338Z,17.97
2019-05-22T20:16:33.498Z,17.98
2019-05-22T20:19:56.944Z,17.82
2019-05-22T20:23:34.505Z,17.75
2019-05-22T20:26:46.362Z,17.61
2019-05-22T20:30:10.502Z,17.56
2019-05-22T20:33:34.089Z,17.44
2019-05-22T20:36:57.385Z,17.32
2019-05-22T20:40:21.479Z,17.32
2019-05-22T20:43:47.629Z,17.28
2019-05-22T20:47:11.239Z,17.17
2019-05-22T20:50:35.566Z,17.26
2019-05-22T20:53:59.445Z,17.07
2019-05-22T21:02:11.358Z,17.14
2019-05-22T21:05:35.589Z,17.08
2019-05-22T21:08:59.817Z,17.16
2019-05-22T21:12:23.769Z,17.07
2019-05-22T21:15:49.128Z,17.13
2019-05-22T21:19:14.237Z,17.18
2019-05-22T21:22:37.741Z,17.43
2019-05-22T21:26:01.107Z,17.47
2019-05-22T21:29:27.164Z,17.62
2019-05-22T21:32:50.316Z,17.46
2019-05-22T21:36:15.913Z,17.26
2019-05-22T21:39:41.503Z,17.24
2019-05-22T21:43:07.237Z,17.17
2019-05-22T21:46:31.061Z,16.96
2019-05-22T21:49:54.717Z,16.80
2019-05-22T21:53:19.840Z,16.68
2019-05-22T21:56:43.931Z,16.47
2019-05-22T22:00:14.091Z,16.58
2019-05-22T22:03:41.603Z,16.40
2019-05-22T22:07:05.242Z,16.40
2019-05-22T22:10:30.052Z,16.22
2019-05-22T22:13:54.470Z,16.23
2019-05-22T22:17:19.182Z,16.13
2019-05-22T22:20:42.875Z,16.00
2019-05-22T22:24:06.819Z,15.89
2019-05-22T22:27:30.742Z,15.71
2019-05-22T22:30:56.056Z,15.61
2019-05-22T22:34:39.997Z,15.71
2019-05-22T22:38:03.655Z,15.53
2019-05-22T22:41:27.565Z,15.58
2019-05-22T22:44:53.677Z,15.51
2019-05-22T22:48:21.377Z,15.59
2019-05-22T22:51:46.251Z,15.36
2019-05-22T22:55:14.534Z,15.26
2019-05-22T22:58:38.504Z,15.14
2019-05-22T23:02:02.707Z,14.98
2019-05-22T23:05:26.708Z,14.99
2019-05-22T23:08:51.742Z,14.78
2019-05-22T23:12:15.405Z,14.83
2019-05-22T23:15:39.489Z,14.80
2019-05-22T23:19:38.167Z,14.76
2019-05-22T23:22:59.945Z,14.76
2019-05-22T23:26:24.534Z,14.67
2019-05-22T23:29:48.374Z,14.46
2019-05-22T23:33:11.594Z,14.61
2019-05-22T23:36:36.071Z,14.38
2019-05-22T23:39:59.414Z,14.31
2019-05-22T23:43:22.746Z,14.21
2019-05-22T23:46:45.859Z,14.15
2019-05-22T23:50:09.565Z,14.11
2019-05-22T23:53:34.699Z,14.20
2019-05-22T23:56:58.204Z,13.96
